Map

Track Data

SID SEASON NUMBER BASIN SUBBASIN NAME ISO_TIME NATURE LAT LON WMO_WIND WMO_PRES WMO_AGENCY TRACK_TYPE DIST2LAND LANDFALL IFLAG USA_AGENCY USA_ATCF_ID USA_LAT USA_LON USA_RECORD USA_STATUS USA_WIND USA_PRES USA_SSHS USA_R34_NE USA_R34_SE USA_R34_SW USA_R34_NW USA_R50_NE USA_R50_SE USA_R50_SW USA_R50_NW USA_R64_NE USA_R64_SE USA_R64_SW USA_R64_NW USA_POCI USA_ROCI USA_RMW USA_EYE TOKYO_LAT TOKYO_LON TOKYO_GRADE TOKYO_WIND TOKYO_PRES TOKYO_R50_DIR TOKYO_R50_LONG TOKYO_R50_SHORT TOKYO_R30_DIR TOKYO_R30_LONG TOKYO_R30_SHORT TOKYO_LAND CMA_LAT CMA_LON CMA_CAT CMA_WIND CMA_PRES HKO_LAT HKO_LON HKO_CAT HKO_WIND HKO_PRES NEWDELHI_LAT NEWDELHI_LON NEWDELHI_GRADE NEWDELHI_WIND NEWDELHI_PRES NEWDELHI_CI NEWDELHI_DP NEWDELHI_POCI REUNION_LAT REUNION_LON REUNION_TYPE REUNION_WIND REUNION_PRES REUNION_TNUM REUNION_CI REUNION_RMW REUNION_R34_NE REUNION_R34_SE REUNION_R34_SW REUNION_R34_NW REUNION_R50_NE REUNION_R50_SE REUNION_R50_SW REUNION_R50_NW REUNION_R64_NE REUNION_R64_SE REUNION_R64_SW REUNION_R64_NW BOM_LAT BOM_LON BOM_TYPE BOM_WIND BOM_PRES BOM_TNUM BOM_CI BOM_RMW BOM_R34_NE BOM_R34_SE BOM_R34_SW BOM_R34_NW BOM_R50_NE BOM_R50_SE BOM_R50_SW BOM_R50_NW BOM_R64_NE BOM_R64_SE BOM_R64_SW BOM_R64_NW BOM_ROCI BOM_POCI BOM_EYE BOM_POS_METHOD BOM_PRES_METHOD NADI_LAT NADI_LON NADI_CAT NADI_WIND NADI_PRES WELLINGTON_LAT WELLINGTON_LON WELLINGTON_WIND WELLINGTON_PRES DS824_LAT DS824_LON DS824_STAGE DS824_WIND DS824_PRES TD9636_LAT TD9636_LON TD9636_STAGE TD9636_WIND TD9636_PRES TD9635_LAT TD9635_LON TD9635_WIND TD9635_PRES TD9635_ROCI NEUMANN_LAT NEUMANN_LON NEUMANN_CLASS NEUMANN_WIND NEUMANN_PRES MLC_LAT MLC_LON MLC_CLASS MLC_WIND MLC_PRES USA_GUST BOM_GUST BOM_GUST_PER REUNION_GUST REUNION_GUST_PER USA_SEAHGT USA_SEARAD_NE USA_SEARAD_SE USA_SEARAD_SW USA_SEARAD_NW STORM_SPEED STORM_DIR
1866101S14051 1866 10 SI MM NOT_NAMED 1866-04-11 06:00:00 NR -14.4000 51.1000 reunion main 99 85 _____O________ -1 -14.4000 51.1000 99 9.90000 6 185
1866101S14051 1866 10 SI MM NOT_NAMED 1866-04-11 09:00:00 NR -14.6816 51.0976 main 85 72 _____P________ -1 -14.6816 51.0976 99 6 0
1866101S14051 1866 10 SI MM NOT_NAMED 1866-04-11 12:00:00 NR -14.9638 51.0942 main 68 64 _____P________ -1 -14.9638 51.0942 99 6 0
1866101S14051 1866 10 SI MM NOT_NAMED 1866-04-11 15:00:00 NR -15.2471 51.0890 main 64 64 _____P________ -1 -15.2471 51.0890 99 6 0
1866101S14051 1866 10 SI MM NOT_NAMED 1866-04-11 18:00:00 NR -15.5321 51.0808 main 65 65 _____P________ -1 -15.5321 51.0808 99 6 0
1866101S14051 1866 10 SI MM NOT_NAMED 1866-04-11 21:00:00 NR -15.8194 51.0688 main 78 78 _____P________ -1 -15.8194 51.0688 99 6 181
1866101S14051 1866 10 SI MM NOT_NAMED 1866-04-12 00:00:00 NR -16.1094 51.0520 main 91 82 _____P________ -1 -16.1094 51.0520 99 6 183
1866101S14051 1866 10 SI MM NOT_NAMED 1866-04-12 03:00:00 NR -16.4028 51.0294 main 96 96 _____P________ -1 -16.4028 51.0294 99 6 186
1866101S14051 1866 10 SI MM NOT_NAMED 1866-04-12 06:00:00 NR -16.7000 51.0000 reunion main 115 115 _____O________ -1 -16.7000 51.0000 99 9.90000 6 187
1866101S14051 1866 10 SI MM NOT_NAMED 1866-04-12 09:00:00 NR -17.0025 50.9638 main 129 121 _____P________ -1 -17.0025 50.9638 99 6 186
1866101S14051 1866 10 SI MM NOT_NAMED 1866-04-12 12:00:00 NR -17.3148 50.9246 main 129 129 _____P________ -1 -17.3148 50.9246 99 6 187
1866101S14051 1866 10 SI MM NOT_NAMED 1866-04-12 15:00:00 NR -17.6424 50.8873 main 147 147 _____P________ -1 -17.6424 50.8873 99 7 186
1866101S14051 1866 10 SI MM NOT_NAMED 1866-04-12 18:00:00 NR -17.9906 50.8567 main 151 144 _____P________ -1 -17.9906 50.8567 99 7 184
1866101S14051 1866 10 SI MM NOT_NAMED 1866-04-12 21:00:00 NR -18.3650 50.8377 main 149 149 _____P________ -1 -18.3650 50.8377 99 8 0
1866101S14051 1866 10 SI MM NOT_NAMED 1866-04-13 00:00:00 NR -18.7710 50.8352 main 162 162 _____P________ -1 -18.7710 50.8352 99 9 178
1866101S14051 1866 10 SI MM NOT_NAMED 1866-04-13 03:00:00 NR -19.2142 50.8543 main 187 187 _____P________ -1 -19.2142 50.8543 99 9 177
1866101S14051 1866 10 SI MM NOT_NAMED 1866-04-13 06:00:00 NR -19.7000 50.9000 reunion main 204 204 _____O________ -1 -19.7000 50.9000 99 9.90000 11 174
1866101S14051 1866 10 SI MM NOT_NAMED 1866-04-13 09:00:00 NR -20.3143 50.9888 main 232 232 _____P________ -1 -20.3143 50.9888 99 13 171
1866101S14051 1866 10 SI MM NOT_NAMED 1866-04-13 12:00:00 NR -20.9823 51.1054 main 264 264 _____P________ -1 -20.9823 51.1054 99 14 170
1866101S14051 1866 10 SI MM NOT_NAMED 1866-04-13 15:00:00 NR -21.6805 51.2450 main 300 300 _____P________ -1 -21.6805 51.2450 99 14 169
1866101S14051 1866 10 SI MM NOT_NAMED 1866-04-13 18:00:00 NR -22.3853 51.4023 main 336 336 _____P________ -1 -22.3853 51.4023 99 14 168
1866101S14051 1866 10 SI MM NOT_NAMED 1866-04-13 21:00:00 NR -23.0733 51.5722 main 378 378 _____P________ -1 -23.0733 51.5722 99 14 167
1866101S14051 1866 10 SI MM NOT_NAMED 1866-04-14 00:00:00 NR -23.7206 51.7490 main 408 408 _____P________ -1 -23.7206 51.7490 99 13 165
1866101S14051 1866 10 SI MM NOT_NAMED 1866-04-14 03:00:00 NR -24.3040 51.9269 main 438 438 _____P________ -1 -24.3040 51.9269 99 11 164
1866101S14051 1866 10 SI MM NOT_NAMED 1866-04-14 06:00:00 NR -24.8000 52.1000 reunion main 472 472 _____O________ -1 -24.8000 52.1000 99 9.90000 9 161
1866101S14051 1866 10 SI MM NOT_NAMED 1866-04-14 09:00:00 NR -25.1915 52.2633 main 503 503 _____P________ -1 -25.1915 52.2633 99 7 157
1866101S14051 1866 10 SI MM NOT_NAMED 1866-04-14 12:00:00 NR -25.4863 52.4166 main 522 522 _____P________ -1 -25.4863 52.4166 99 6 152
1866101S14051 1866 10 SI MM NOT_NAMED 1866-04-14 15:00:00 NR -25.6983 52.5611 main 548 548 _____P________ -1 -25.6983 52.5611 99 4 144
1866101S14051 1866 10 SI MM NOT_NAMED 1866-04-14 18:00:00 NR -25.8414 52.6981 main 561 561 _____P________ -1 -25.8414 52.6981 99 3 134
1866101S14051 1866 10 SI MM NOT_NAMED 1866-04-14 21:00:00 NR -25.9293 52.8290 main 573 569 _____P________ -1 -25.9293 52.8290 99 3 120
1866101S14051 1866 10 SI MM NOT_NAMED 1866-04-15 00:00:00 NR -25.9759 52.9553 main 575 571 _____P________ -1 -25.9759 52.9553 99 2 106
1866101S14051 1866 10 SI MM NOT_NAMED 1866-04-15 03:00:00 NR -25.9949 53.0784 main 571 567 _____P________ -1 -25.9949 53.0784 99 2 96
1866101S14051 1866 10 SI MM NOT_NAMED 1866-04-15 06:00:00 NR -26.0000 53.2000 reunion main 567 _____O________ -1 -26.0000 53.2000 99 9.90000 2 93

About IBTrACS Database

This database is a web-friendly format of International Best Track Archive for Climate Stewardship (IBTrACS), a global best track data archive curated by NOAA dating back to 1842.

Updated: 2021-10-21